sensor_id;sensor_type;location;lat;lon;timestamp;temperature;humidity
9177;DHT22;4623;54.310;10.112;2022-11-15T00:01:45;7.90;99.90
9177;DHT22;4623;54.310;10.112;2022-11-15T00:04:10;7.90;99.90
9177;DHT22;4623;54.310;10.112;2022-11-15T00:06:36;7.90;99.90
9177;DHT22;4623;54.310;10.112;2022-11-15T00:09:02;7.90;99.90
9177;DHT22;4623;54.310;10.112;2022-11-15T00:11:28;7.90;99.90
9177;DHT22;4623;54.310;10.112;2022-11-15T00:13:57;7.90;99.90
9177;DHT22;4623;54.310;10.112;2022-11-15T00:16:23;7.90;99.90
9177;DHT22;4623;54.310;10.112;2022-11-15T00:18:50;7.90;99.90
9177;DHT22;4623;54.310;10.112;2022-11-15T00:21:16;7.80;99.90
9177;DHT22;4623;54.310;10.112;2022-11-15T00:23:42;7.80;99.90
9177;DHT22;4623;54.310;10.112;2022-11-15T00:26:12;7.80;99.90
9177;DHT22;4623;54.310;10.112;2022-11-15T00:28:39;7.70;99.90
9177;DHT22;4623;54.310;10.112;2022-11-15T00:31:07;7.70;99.90
9177;DHT22;4623;54.310;10.112;2022-11-15T00:33:33;7.70;99.90
9177;DHT22;4623;54.310;10.112;2022-11-15T00:36:03;7.70;99.90
9177;DHT22;4623;54.310;10.112;2022-11-15T00:38:33;7.60;99.90
9177;DHT22;4623;54.310;10.112;2022-11-15T00:41:00;7.70;99.90
9177;DHT22;4623;54.310;10.112;2022-11-15T00:43:25;7.60;99.90
9177;DHT22;4623;54.310;10.112;2022-11-15T00:45:51;7.60;99.90
9177;DHT22;4623;54.310;10.112;2022-11-15T00:48:17;7.60;99.90
9177;DHT22;4623;54.310;10.112;2022-11-15T00:50:42;7.60;99.90
9177;DHT22;4623;54.310;10.112;2022-11-15T00:53:08;7.60;99.90
9177;DHT22;4623;54.310;10.112;2022-11-15T00:55:33;7.60;99.90
9177;DHT22;4623;54.310;10.112;2022-11-15T00:57:59;7.50;99.90
9177;DHT22;4623;54.310;10.112;2022-11-15T01:00:25;7.50;99.90
9177;DHT22;4623;54.310;10.112;2022-11-15T01:02:50;7.50;99.90
9177;DHT22;4623;54.310;10.112;2022-11-15T01:05:16;7.50;99.90
9177;DHT22;4623;54.310;10.112;2022-11-15T01:07:42;7.50;99.90
9177;DHT22;4623;54.310;10.112;2022-11-15T01:10:08;7.60;99.90
9177;DHT22;4623;54.310;10.112;2022-11-15T01:12:33;7.50;99.90
9177;DHT22;4623;54.310;10.112;2022-11-15T01:14:59;7.50;99.90
9177;DHT22;4623;54.310;10.112;2022-11-15T01:17:25;7.50;99.90
9177;DHT22;4623;54.310;10.112;2022-11-15T01:19:50;7.50;99.90
9177;DHT22;4623;54.310;10.112;2022-11-15T01:22:16;7.50;99.90
9177;DHT22;4623;54.310;10.112;2022-11-15T01:24:42;7.50;99.90
9177;DHT22;4623;54.310;10.112;2022-11-15T01:27:07;7.50;99.90
9177;DHT22;4623;54.310;10.112;2022-11-15T01:29:33;7.60;99.90
9177;DHT22;4623;54.310;10.112;2022-11-15T01:31:59;7.60;99.90
9177;DHT22;4623;54.310;10.112;2022-11-15T01:34:25;7.60;99.90
9177;DHT22;4623;54.310;10.112;2022-11-15T01:36:50;7.60;99.90
9177;DHT22;4623;54.310;10.112;2022-11-15T01:39:16;7.60;99.90
9177;DHT22;4623;54.310;10.112;2022-11-15T01:41:42;7.60;99.90
9177;DHT22;4623;54.310;10.112;2022-11-15T01:44:43;7.60;99.90
9177;DHT22;4623;54.310;10.112;2022-11-15T01:49:53;7.60;99.90
9177;DHT22;4623;54.310;10.112;2022-11-15T01:52:22;7.60;99.90
9177;DHT22;4623;54.310;10.112;2022-11-15T01:54:53;7.60;99.90
9177;DHT22;4623;54.310;10.112;2022-11-15T01:57:20;7.60;99.90
9177;DHT22;4623;54.310;10.112;2022-11-15T01:59:46;7.60;99.90
9177;DHT22;4623;54.310;10.112;2022-11-15T02:02:12;7.60;99.90
9177;DHT22;4623;54.310;10.112;2022-11-15T02:04:46;7.60;99.90
9177;DHT22;4623;54.310;10.112;2022-11-15T02:07:16;7.60;99.90
9177;DHT22;4623;54.310;10.112;2022-11-15T02:09:43;7.60;99.90
9177;DHT22;4623;54.310;10.112;2022-11-15T02:12:10;7.60;99.90
9177;DHT22;4623;54.310;10.112;2022-11-15T02:14:40;7.60;99.90
9177;DHT22;4623;54.310;10.112;2022-11-15T02:33:45;7.50;99.90
9177;DHT22;4623;54.310;10.112;2022-11-15T02:36:19;7.50;99.90
9177;DHT22;4623;54.310;10.112;2022-11-15T02:39:05;7.50;99.90
9177;DHT22;4623;54.310;10.112;2022-11-15T02:41:48;7.40;99.90
9177;DHT22;4623;54.310;10.112;2022-11-15T02:47:02;7.50;99.90
9177;DHT22;4623;54.310;10.112;2022-11-15T02:49:40;7.50;99.90
9177;DHT22;4623;54.310;10.112;2022-11-15T02:52:07;7.40;99.90
9177;DHT22;4623;54.310;10.112;2022-11-15T02:54:33;7.40;99.90
9177;DHT22;4623;54.310;10.112;2022-11-15T02:57:05;7.40;99.90
9177;DHT22;4623;54.310;10.112;2022-11-15T02:59:57;7.40;99.90
9177;DHT22;4623;54.310;10.112;2022-11-15T03:05:41;7.30;99.90
9177;DHT22;4623;54.310;10.112;2022-11-15T03:11:14;7.20;99.90
9177;DHT22;4623;54.310;10.112;2022-11-15T03:14:00;7.20;99.90
9177;DHT22;4623;54.310;10.112;2022-11-15T03:16:58;7.20;99.90
9177;DHT22;4623;54.310;10.112;2022-11-15T03:19:39;7.20;99.90
9177;DHT22;4623;54.310;10.112;2022-11-15T03:22:10;7.10;99.90
9177;DHT22;4623;54.310;10.112;2022-11-15T03:24:37;7.10;99.90
9177;DHT22;4623;54.310;10.112;2022-11-15T03:27:05;7.10;99.90
9177;DHT22;4623;54.310;10.112;2022-11-15T03:29:36;7.10;99.90
9177;DHT22;4623;54.310;10.112;2022-11-15T03:32:12;7.10;99.90
9177;DHT22;4623;54.310;10.112;2022-11-15T03:35:00;7.10;99.90
9177;DHT22;4623;54.310;10.112;2022-11-15T03:40:00;7.00;99.90
9177;DHT22;4623;54.310;10.112;2022-11-15T03:42:38;7.00;99.90
9177;DHT22;4623;54.310;10.112;2022-11-15T03:45:22;7.00;99.90
9177;DHT22;4623;54.310;10.112;2022-11-15T03:47:53;7.00;99.90
9177;DHT22;4623;54.310;10.112;2022-11-15T03:50:20;7.00;99.90
9177;DHT22;4623;54.310;10.112;2022-11-15T03:52:48;7.00;99.90
9177;DHT22;4623;54.310;10.112;2022-11-15T03:55:19;7.00;99.90
9177;DHT22;4623;54.310;10.112;2022-11-15T03:57:50;7.00;99.90
9177;DHT22;4623;54.310;10.112;2022-11-15T04:00:16;7.00;99.90
9177;DHT22;4623;54.310;10.112;2022-11-15T04:02:42;7.00;99.90
9177;DHT22;4623;54.310;10.112;2022-11-15T04:05:08;6.90;99.90
9177;DHT22;4623;54.310;10.112;2022-11-15T04:07:34;6.90;99.90
9177;DHT22;4623;54.310;10.112;2022-11-15T04:09:59;6.90;99.90
9177;DHT22;4623;54.310;10.112;2022-11-15T04:12:29;6.90;99.90
9177;DHT22;4623;54.310;10.112;2022-11-15T04:15:08;6.80;99.90
9177;DHT22;4623;54.310;10.112;2022-11-15T04:17:40;6.80;99.90
9177;DHT22;4623;54.310;10.112;2022-11-15T04:22:56;6.80;99.90
9177;DHT22;4623;54.310;10.112;2022-11-15T04:25:42;6.80;99.90
9177;DHT22;4623;54.310;10.112;2022-11-15T04:28:08;6.80;99.90
9177;DHT22;4623;54.310;10.112;2022-11-15T04:30:34;6.80;99.90
9177;DHT22;4623;54.310;10.112;2022-11-15T04:33:00;6.80;99.90
9177;DHT22;4623;54.310;10.112;2022-11-15T04:35:25;6.80;99.90
9177;DHT22;4623;54.310;10.112;2022-11-15T04:37:51;6.80;99.90
9177;DHT22;4623;54.310;10.112;2022-11-15T04:40:17;6.80;99.90
9177;DHT22;4623;54.310;10.112;2022-11-15T04:42:42;6.90;99.90
9177;DHT22;4623;54.310;10.112;2022-11-15T04:45:09;6.90;99.90
9177;DHT22;4623;54.310;10.112;2022-11-15T04:47:34;6.80;99.90
9177;DHT22;4623;54.310;10.112;2022-11-15T04:50:00;6.80;99.90
9177;DHT22;4623;54.310;10.112;2022-11-15T04:52:26;6.80;99.90
9177;DHT22;4623;54.310;10.112;2022-11-15T04:54:52;6.80;99.90
9177;DHT22;4623;54.310;10.112;2022-11-15T04:57:18;6.80;99.90
9177;DHT22;4623;54.310;10.112;2022-11-15T04:59:43;6.70;99.90
9177;DHT22;4623;54.310;10.112;2022-11-15T05:02:09;6.80;99.90
9177;DHT22;4623;54.310;10.112;2022-11-15T05:04:34;6.70;99.90
9177;DHT22;4623;54.310;10.112;2022-11-15T05:07:00;6.70;99.90
9177;DHT22;4623;54.310;10.112;2022-11-15T05:09:26;6.70;99.90
9177;DHT22;4623;54.310;10.112;2022-11-15T05:11:51;6.70;99.90
9177;DHT22;4623;54.310;10.112;2022-11-15T05:14:17;6.60;99.90
9177;DHT22;4623;54.310;10.112;2022-11-15T05:16:43;6.60;99.90
9177;DHT22;4623;54.310;10.112;2022-11-15T05:19:08;6.70;99.90
9177;DHT22;4623;54.310;10.112;2022-11-15T05:21:34;6.70;99.90
9177;DHT22;4623;54.310;10.112;2022-11-15T05:24:01;6.70;99.90
9177;DHT22;4623;54.310;10.112;2022-11-15T05:26:27;6.60;99.90
9177;DHT22;4623;54.310;10.112;2022-11-15T05:28:54;6.60;99.90
9177;DHT22;4623;54.310;10.112;2022-11-15T05:31:20;6.60;99.90
9177;DHT22;4623;54.310;10.112;2022-11-15T05:33:46;6.60;99.90
9177;DHT22;4623;54.310;10.112;2022-11-15T05:36:25;6.70;99.90
9177;DHT22;4623;54.310;10.112;2022-11-15T05:38:53;6.80;99.90
9177;DHT22;4623;54.310;10.112;2022-11-15T05:42:06;6.80;99.90
9177;DHT22;4623;54.310;10.112;2022-11-15T05:44:07;6.90;99.90
9177;DHT22;4623;54.310;10.112;2022-11-15T05:46:36;6.90;99.90
9177;DHT22;4623;54.310;10.112;2022-11-15T05:49:05;7.10;99.90
9177;DHT22;4623;54.310;10.112;2022-11-15T05:51:31;7.10;99.90
9177;DHT22;4623;54.310;10.112;2022-11-15T05:53:58;7.20;99.90
9177;DHT22;4623;54.310;10.112;2022-11-15T05:56:24;7.30;99.90
9177;DHT22;4623;54.310;10.112;2022-11-15T05:58:53;7.40;99.90
9177;DHT22;4623;54.310;10.112;2022-11-15T06:01:19;7.40;99.90
9177;DHT22;4623;54.310;10.112;2022-11-15T06:03:44;7.40;99.90
9177;DHT22;4623;54.310;10.112;2022-11-15T06:06:10;7.50;99.90
9177;DHT22;4623;54.310;10.112;2022-11-15T06:08:36;7.50;99.90
9177;DHT22;4623;54.310;10.112;2022-11-15T06:11:05;7.50;99.90
9177;DHT22;4623;54.310;10.112;2022-11-15T06:13:32;7.60;99.90
9177;DHT22;4623;54.310;10.112;2022-11-15T06:15:58;7.50;99.90
9177;DHT22;4623;54.310;10.112;2022-11-15T06:18:24;7.50;99.90
9177;DHT22;4623;54.310;10.112;2022-11-15T06:20:49;7.50;99.90
9177;DHT22;4623;54.310;10.112;2022-11-15T06:23:15;7.60;99.90
9177;DHT22;4623;54.310;10.112;2022-11-15T06:25:40;7.60;99.90
9177;DHT22;4623;54.310;10.112;2022-11-15T06:28:06;7.60;99.90
9177;DHT22;4623;54.310;10.112;2022-11-15T06:30:31;7.60;99.90
9177;DHT22;4623;54.310;10.112;2022-11-15T06:33:02;7.60;99.90
9177;DHT22;4623;54.310;10.112;2022-11-15T06:35:28;7.70;99.90
9177;DHT22;4623;54.310;10.112;2022-11-15T06:37:54;7.70;99.90
9177;DHT22;4623;54.310;10.112;2022-11-15T06:40:21;7.70;99.90
9177;DHT22;4623;54.310;10.112;2022-11-15T06:42:47;7.80;99.90
9177;DHT22;4623;54.310;10.112;2022-11-15T06:45:12;7.80;99.90
9177;DHT22;4623;54.310;10.112;2022-11-15T06:47:46;7.80;99.90
9177;DHT22;4623;54.310;10.112;2022-11-15T06:50:13;7.80;99.90
9177;DHT22;4623;54.310;10.112;2022-11-15T06:52:38;7.80;99.90
9177;DHT22;4623;54.310;10.112;2022-11-15T06:55:04;7.70;99.90
9177;DHT22;4623;54.310;10.112;2022-11-15T06:57:30;7.70;99.90
9177;DHT22;4623;54.310;10.112;2022-11-15T06:59:57;7.70;99.90
9177;DHT22;4623;54.310;10.112;2022-11-15T07:02:23;7.70;99.90
9177;DHT22;4623;54.310;10.112;2022-11-15T07:04:48;7.80;99.90
9177;DHT22;4623;54.310;10.112;2022-11-15T07:07:14;7.70;99.90
9177;DHT22;4623;54.310;10.112;2022-11-15T07:09:40;7.80;99.90
9177;DHT22;4623;54.310;10.112;2022-11-15T07:12:05;7.80;99.90
9177;DHT22;4623;54.310;10.112;2022-11-15T07:14:31;7.80;99.90
9177;DHT22;4623;54.310;10.112;2022-11-15T07:16:57;7.80;99.90
9177;DHT22;4623;54.310;10.112;2022-11-15T07:19:22;7.90;99.90
9177;DHT22;4623;54.310;10.112;2022-11-15T07:21:48;7.90;99.90
9177;DHT22;4623;54.310;10.112;2022-11-15T07:24:14;8.00;99.90
9177;DHT22;4623;54.310;10.112;2022-11-15T07:26:39;7.90;99.90
9177;DHT22;4623;54.310;10.112;2022-11-15T07:29:05;8.00;99.90
9177;DHT22;4623;54.310;10.112;2022-11-15T07:31:31;8.00;99.90
9177;DHT22;4623;54.310;10.112;2022-11-15T07:33:56;8.00;99.90
9177;DHT22;4623;54.310;10.112;2022-11-15T07:36:22;8.00;99.90
9177;DHT22;4623;54.310;10.112;2022-11-15T07:38:48;8.00;99.90
9177;DHT22;4623;54.310;10.112;2022-11-15T07:41:13;8.00;99.90
9177;DHT22;4623;54.310;10.112;2022-11-15T07:43:39;8.00;99.90
9177;DHT22;4623;54.310;10.112;2022-11-15T07:46:08;8.00;99.90
9177;DHT22;4623;54.310;10.112;2022-11-15T07:48:35;8.10;99.90
9177;DHT22;4623;54.310;10.112;2022-11-15T07:51:01;8.10;99.90
9177;DHT22;4623;54.310;10.112;2022-11-15T07:53:27;8.00;99.90
9177;DHT22;4623;54.310;10.112;2022-11-15T07:55:53;8.10;99.90
9177;DHT22;4623;54.310;10.112;2022-11-15T07:58:19;8.10;99.90
9177;DHT22;4623;54.310;10.112;2022-11-15T08:00:44;8.10;99.90
9177;DHT22;4623;54.310;10.112;2022-11-15T08:03:12;8.20;99.90
9177;DHT22;4623;54.310;10.112;2022-11-15T08:05:39;8.20;99.90
9177;DHT22;4623;54.310;10.112;2022-11-15T08:08:06;8.20;99.90
9177;DHT22;4623;54.310;10.112;2022-11-15T08:10:32;8.20;99.90
9177;DHT22;4623;54.310;10.112;2022-11-15T08:13:09;8.20;99.90
9177;DHT22;4623;54.310;10.112;2022-11-15T08:15:35;8.30;99.90
9177;DHT22;4623;54.310;10.112;2022-11-15T08:18:06;8.30;99.90
9177;DHT22;4623;54.310;10.112;2022-11-15T08:20:34;8.30;99.90
9177;DHT22;4623;54.310;10.112;2022-11-15T08:23:01;8.30;99.90
9177;DHT22;4623;54.310;10.112;2022-11-15T08:25:30;8.30;99.90
9177;DHT22;4623;54.310;10.112;2022-11-15T08:27:57;8.40;99.90
9177;DHT22;4623;54.310;10.112;2022-11-15T08:30:23;8.40;99.90
9177;DHT22;4623;54.310;10.112;2022-11-15T08:32:50;8.40;99.90
9177;DHT22;4623;54.310;10.112;2022-11-15T08:35:17;8.40;99.90
9177;DHT22;4623;54.310;10.112;2022-11-15T08:37:43;8.40;99.90
9177;DHT22;4623;54.310;10.112;2022-11-15T08:40:09;8.40;99.90
9177;DHT22;4623;54.310;10.112;2022-11-15T08:42:36;8.40;99.90
9177;DHT22;4623;54.310;10.112;2022-11-15T08:45:02;8.40;99.90
9177;DHT22;4623;54.310;10.112;2022-11-15T08:47:27;8.50;99.90
9177;DHT22;4623;54.310;10.112;2022-11-15T08:49:53;8.50;99.90
9177;DHT22;4623;54.310;10.112;2022-11-15T08:52:19;8.60;99.90
9177;DHT22;4623;54.310;10.112;2022-11-15T08:54:46;8.70;99.90
9177;DHT22;4623;54.310;10.112;2022-11-15T08:57:12;8.60;99.90
9177;DHT22;4623;54.310;10.112;2022-11-15T08:59:37;8.60;99.90
9177;DHT22;4623;54.310;10.112;2022-11-15T09:02:04;8.60;99.90
9177;DHT22;4623;54.310;10.112;2022-11-15T09:04:30;8.70;99.90
9177;DHT22;4623;54.310;10.112;2022-11-15T09:06:55;8.70;99.90
9177;DHT22;4623;54.310;10.112;2022-11-15T09:09:21;8.70;99.90
9177;DHT22;4623;54.310;10.112;2022-11-15T09:11:47;8.80;99.90
9177;DHT22;4623;54.310;10.112;2022-11-15T09:14:13;8.80;99.90
9177;DHT22;4623;54.310;10.112;2022-11-15T09:16:39;8.80;99.90
9177;DHT22;4623;54.310;10.112;2022-11-15T09:19:05;8.80;99.90
9177;DHT22;4623;54.310;10.112;2022-11-15T09:21:31;8.80;99.90
9177;DHT22;4623;54.310;10.112;2022-11-15T09:23:57;8.90;99.90
9177;DHT22;4623;54.310;10.112;2022-11-15T09:26:22;8.90;99.90
9177;DHT22;4623;54.310;10.112;2022-11-15T09:28:48;8.90;99.90
9177;DHT22;4623;54.310;10.112;2022-11-15T09:31:14;8.90;99.90
9177;DHT22;4623;54.310;10.112;2022-11-15T09:33:40;8.90;99.90
9177;DHT22;4623;54.310;10.112;2022-11-15T09:36:09;8.90;99.90
9177;DHT22;4623;54.310;10.112;2022-11-15T09:38:35;9.00;99.90
9177;DHT22;4623;54.310;10.112;2022-11-15T09:44:00;9.10;99.90
9177;DHT22;4623;54.310;10.112;2022-11-15T09:49:53;9.10;99.90
9177;DHT22;4623;54.310;10.112;2022-11-15T09:52:20;9.10;99.90
9177;DHT22;4623;54.310;10.112;2022-11-15T09:54:50;9.20;99.90
9177;DHT22;4623;54.310;10.112;2022-11-15T10:00:08;9.30;99.90
9177;DHT22;4623;54.310;10.112;2022-11-15T10:05:50;9.40;99.90
9177;DHT22;4623;54.310;10.112;2022-11-15T10:08:27;9.40;99.90
9177;DHT22;4623;54.310;10.112;2022-11-15T10:11:01;9.50;99.90
9177;DHT22;4623;54.310;10.112;2022-11-15T10:13:33;9.50;99.90
9177;DHT22;4623;54.310;10.112;2022-11-15T10:22:24;9.60;99.90
9177;DHT22;4623;54.310;10.112;2022-11-15T10:24:58;9.60;99.90
9177;DHT22;4623;54.310;10.112;2022-11-15T10:27:26;9.60;99.90
9177;DHT22;4623;54.310;10.112;2022-11-15T10:29:51;9.50;99.90
9177;DHT22;4623;54.310;10.112;2022-11-15T10:32:18;9.60;99.90
9177;DHT22;4623;54.310;10.112;2022-11-15T10:34:44;9.60;99.90
9177;DHT22;4623;54.310;10.112;2022-11-15T10:37:10;9.70;99.90
9177;DHT22;4623;54.310;10.112;2022-11-15T10:39:37;9.70;99.90
9177;DHT22;4623;54.310;10.112;2022-11-15T10:42:16;9.80;99.90
9177;DHT22;4623;54.310;10.112;2022-11-15T10:44:44;9.80;99.90
9177;DHT22;4623;54.310;10.112;2022-11-15T10:47:28;9.70;99.90
9177;DHT22;4623;54.310;10.112;2022-11-15T10:50:27;9.70;99.90
9177;DHT22;4623;54.310;10.112;2022-11-15T10:52:53;9.80;99.90
9177;DHT22;4623;54.310;10.112;2022-11-15T10:55:30;9.80;99.90
9177;DHT22;4623;54.310;10.112;2022-11-15T11:00:48;9.80;99.90
9177;DHT22;4623;54.310;10.112;2022-11-15T11:03:28;9.80;99.90
9177;DHT22;4623;54.310;10.112;2022-11-15T11:08:34;9.90;99.90
9177;DHT22;4623;54.310;10.112;2022-11-15T11:11:01;9.90;99.90
9177;DHT22;4623;54.310;10.112;2022-11-15T11:13:38;10.00;99.90
9177;DHT22;4623;54.310;10.112;2022-11-15T11:21:30;10.00;99.90
9177;DHT22;4623;54.310;10.112;2022-11-15T11:30:02;10.00;99.90
9177;DHT22;4623;54.310;10.112;2022-11-15T11:35:15;9.90;99.90
9177;DHT22;4623;54.310;10.112;2022-11-15T11:37:45;9.90;99.90
9177;DHT22;4623;54.310;10.112;2022-11-15T11:42:54;9.90;99.90
9177;DHT22;4623;54.310;10.112;2022-11-15T11:50:32;9.90;99.90
9177;DHT22;4623;54.310;10.112;2022-11-15T11:55:54;9.90;99.90
9177;DHT22;4623;54.310;10.112;2022-11-15T11:58:36;10.00;99.90
9177;DHT22;4623;54.310;10.112;2022-11-15T12:01:10;10.00;99.90
9177;DHT22;4623;54.310;10.112;2022-11-15T12:04:42;10.00;99.90
9177;DHT22;4623;54.310;10.112;2022-11-15T12:06:49;10.00;99.90
9177;DHT22;4623;54.310;10.112;2022-11-15T12:09:35;10.00;99.90
9177;DHT22;4623;54.310;10.112;2022-11-15T12:14:53;10.00;99.90
9177;DHT22;4623;54.310;10.112;2022-11-15T12:17:23;10.00;99.90
9177;DHT22;4623;54.310;10.112;2022-11-15T12:19:49;10.10;99.90
9177;DHT22;4623;54.310;10.112;2022-11-15T12:22:38;10.00;99.90
9177;DHT22;4623;54.310;10.112;2022-11-15T12:25:21;10.10;99.90
9177;DHT22;4623;54.310;10.112;2022-11-15T12:27:58;10.10;99.90
9177;DHT22;4623;54.310;10.112;2022-11-15T12:30:40;10.10;99.90
9177;DHT22;4623;54.310;10.112;2022-11-15T12:33:37;10.20;99.90
9177;DHT22;4623;54.310;10.112;2022-11-15T12:38:57;10.20;99.90
9177;DHT22;4623;54.310;10.112;2022-11-15T12:41:26;10.20;99.90
9177;DHT22;4623;54.310;10.112;2022-11-15T12:43:54;10.30;99.90
9177;DHT22;4623;54.310;10.112;2022-11-15T12:48:58;10.30;99.90
9177;DHT22;4623;54.310;10.112;2022-11-15T13:02:37;10.30;99.90
9177;DHT22;4623;54.310;10.112;2022-11-15T13:31:03;10.30;99.90
9177;DHT22;4623;54.310;10.112;2022-11-15T13:33:39;10.40;99.90
9177;DHT22;4623;54.310;10.112;2022-11-15T13:38:43;10.30;99.90
9177;DHT22;4623;54.310;10.112;2022-11-15T13:41:18;10.40;99.90
9177;DHT22;4623;54.310;10.112;2022-11-15T13:43:45;10.40;99.90
9177;DHT22;4623;54.310;10.112;2022-11-15T13:46:21;10.50;99.90
9177;DHT22;4623;54.310;10.112;2022-11-15T13:48:56;10.50;99.90
9177;DHT22;4623;54.310;10.112;2022-11-15T13:56:42;10.70;99.90
9177;DHT22;4623;54.310;10.112;2022-11-15T13:59:24;10.80;99.90
9177;DHT22;4623;54.310;10.112;2022-11-15T14:01:52;10.80;99.90
9177;DHT22;4623;54.310;10.112;2022-11-15T14:04:20;10.80;99.90
9177;DHT22;4623;54.310;10.112;2022-11-15T14:06:56;10.90;99.90
9177;DHT22;4623;54.310;10.112;2022-11-15T14:11:54;11.00;99.90
9177;DHT22;4623;54.310;10.112;2022-11-15T14:14:22;11.00;99.90
9177;DHT22;4623;54.310;10.112;2022-11-15T14:16:54;11.00;99.90
9177;DHT22;4623;54.310;10.112;2022-11-15T14:24:43;11.10;99.90
9177;DHT22;4623;54.310;10.112;2022-11-15T14:27:26;11.10;99.90
9177;DHT22;4623;54.310;10.112;2022-11-15T14:29:53;11.10;99.90
9177;DHT22;4623;54.310;10.112;2022-11-15T14:32:24;11.10;99.90
9177;DHT22;4623;54.310;10.112;2022-11-15T14:34:59;11.10;99.90
9177;DHT22;4623;54.310;10.112;2022-11-15T14:39:52;11.10;99.90
9177;DHT22;4623;54.310;10.112;2022-11-15T14:42:19;11.10;99.90
9177;DHT22;4623;54.310;10.112;2022-11-15T14:44:45;11.00;99.90
9177;DHT22;4623;54.310;10.112;2022-11-15T14:47:11;11.00;99.90
9177;DHT22;4623;54.310;10.112;2022-11-15T14:49:36;10.90;99.90
9177;DHT22;4623;54.310;10.112;2022-11-15T14:52:03;11.00;99.90
9177;DHT22;4623;54.310;10.112;2022-11-15T14:54:30;11.00;99.90
9177;DHT22;4623;54.310;10.112;2022-11-15T14:56:55;11.00;99.90
9177;DHT22;4623;54.310;10.112;2022-11-15T14:59:21;11.00;99.90
9177;DHT22;4623;54.310;10.112;2022-11-15T15:01:47;11.00;99.90
9177;DHT22;4623;54.310;10.112;2022-11-15T15:04:12;11.00;99.90
9177;DHT22;4623;54.310;10.112;2022-11-15T15:06:38;11.00;99.90
9177;DHT22;4623;54.310;10.112;2022-11-15T15:09:03;11.00;99.90
9177;DHT22;4623;54.310;10.112;2022-11-15T15:11:31;11.00;99.90
9177;DHT22;4623;54.310;10.112;2022-11-15T15:13:58;10.90;99.90
9177;DHT22;4623;54.310;10.112;2022-11-15T15:16:26;10.90;99.90
9177;DHT22;4623;54.310;10.112;2022-11-15T15:18:52;10.90;99.90
9177;DHT22;4623;54.310;10.112;2022-11-15T15:21:28;10.80;99.90
9177;DHT22;4623;54.310;10.112;2022-11-15T15:23:54;10.80;99.90
9177;DHT22;4623;54.310;10.112;2022-11-15T15:26:20;10.80;99.90
9177;DHT22;4623;54.310;10.112;2022-11-15T15:28:46;10.70;99.90
9177;DHT22;4623;54.310;10.112;2022-11-15T15:31:14;10.70;99.90
9177;DHT22;4623;54.310;10.112;2022-11-15T15:33:39;10.70;99.90
9177;DHT22;4623;54.310;10.112;2022-11-15T15:36:12;10.70;99.90
9177;DHT22;4623;54.310;10.112;2022-11-15T15:38:37;10.60;99.90
9177;DHT22;4623;54.310;10.112;2022-11-15T15:41:11;10.60;99.90
9177;DHT22;4623;54.310;10.112;2022-11-15T15:43:37;10.60;99.90
9177;DHT22;4623;54.310;10.112;2022-11-15T15:46:03;10.60;99.90
9177;DHT22;4623;54.310;10.112;2022-11-15T15:48:28;10.60;99.90
9177;DHT22;4623;54.310;10.112;2022-11-15T15:50:54;10.60;99.90
9177;DHT22;4623;54.310;10.112;2022-11-15T15:53:19;10.60;99.90
9177;DHT22;4623;54.310;10.112;2022-11-15T15:55:45;10.60;99.90
9177;DHT22;4623;54.310;10.112;2022-11-15T15:58:11;10.50;99.90
9177;DHT22;4623;54.310;10.112;2022-11-15T16:00:36;10.50;99.90
9177;DHT22;4623;54.310;10.112;2022-11-15T16:03:02;10.50;99.90
9177;DHT22;4623;54.310;10.112;2022-11-15T16:05:28;10.50;99.90
9177;DHT22;4623;54.310;10.112;2022-11-15T16:07:53;10.50;99.90
9177;DHT22;4623;54.310;10.112;2022-11-15T16:10:26;10.50;99.90
9177;DHT22;4623;54.310;10.112;2022-11-15T16:12:53;10.50;99.90
9177;DHT22;4623;54.310;10.112;2022-11-15T16:15:20;10.40;99.90
9177;DHT22;4623;54.310;10.112;2022-11-15T16:18:05;10.50;99.90
9177;DHT22;4623;54.310;10.112;2022-11-15T16:23:06;10.50;99.90
9177;DHT22;4623;54.310;10.112;2022-11-15T16:28:28;10.50;99.90
9177;DHT22;4623;54.310;10.112;2022-11-15T16:31:01;10.50;99.90
9177;DHT22;4623;54.310;10.112;2022-11-15T16:33:26;10.40;99.90
9177;DHT22;4623;54.310;10.112;2022-11-15T16:35:52;10.40;99.90
9177;DHT22;4623;54.310;10.112;2022-11-15T16:38:18;10.40;99.90
9177;DHT22;4623;54.310;10.112;2022-11-15T16:40:43;10.40;99.90
9177;DHT22;4623;54.310;10.112;2022-11-15T16:43:10;10.40;99.90
9177;DHT22;4623;54.310;10.112;2022-11-15T16:45:35;10.40;99.90
9177;DHT22;4623;54.310;10.112;2022-11-15T16:48:01;10.40;99.90
9177;DHT22;4623;54.310;10.112;2022-11-15T16:50:30;10.40;99.90
9177;DHT22;4623;54.310;10.112;2022-11-15T16:52:58;10.40;99.90
9177;DHT22;4623;54.310;10.112;2022-11-15T16:55:26;10.40;99.90
9177;DHT22;4623;54.310;10.112;2022-11-15T16:57:53;10.40;99.90
9177;DHT22;4623;54.310;10.112;2022-11-15T17:00:20;10.30;99.90
9177;DHT22;4623;54.310;10.112;2022-11-15T17:02:47;10.30;99.90
9177;DHT22;4623;54.310;10.112;2022-11-15T17:05:14;10.30;99.90
9177;DHT22;4623;54.310;10.112;2022-11-15T17:07:40;10.30;99.90
9177;DHT22;4623;54.310;10.112;2022-11-15T17:10:07;10.30;99.90
9177;DHT22;4623;54.310;10.112;2022-11-15T17:12:34;10.40;99.90
9177;DHT22;4623;54.310;10.112;2022-11-15T17:15:01;10.40;99.90
9177;DHT22;4623;54.310;10.112;2022-11-15T17:17:27;10.40;99.90
9177;DHT22;4623;54.310;10.112;2022-11-15T17:19:53;10.40;99.90
9177;DHT22;4623;54.310;10.112;2022-11-15T17:22:19;10.40;99.90
9177;DHT22;4623;54.310;10.112;2022-11-15T17:24:45;10.40;99.90
9177;DHT22;4623;54.310;10.112;2022-11-15T17:27:11;10.40;99.90
9177;DHT22;4623;54.310;10.112;2022-11-15T17:29:36;10.40;99.90
9177;DHT22;4623;54.310;10.112;2022-11-15T17:32:02;10.40;99.90
9177;DHT22;4623;54.310;10.112;2022-11-15T17:34:28;10.40;99.90
9177;DHT22;4623;54.310;10.112;2022-11-15T17:36:53;10.40;99.90
9177;DHT22;4623;54.310;10.112;2022-11-15T17:39:19;10.50;99.90
9177;DHT22;4623;54.310;10.112;2022-11-15T17:41:45;10.50;99.90
9177;DHT22;4623;54.310;10.112;2022-11-15T17:44:11;10.40;99.90
9177;DHT22;4623;54.310;10.112;2022-11-15T17:46:37;10.40;99.90
9177;DHT22;4623;54.310;10.112;2022-11-15T17:49:05;10.40;99.90
9177;DHT22;4623;54.310;10.112;2022-11-15T17:51:31;10.40;99.90
9177;DHT22;4623;54.310;10.112;2022-11-15T17:53:56;10.40;99.90
9177;DHT22;4623;54.310;10.112;2022-11-15T17:56:24;10.40;99.90
9177;DHT22;4623;54.310;10.112;2022-11-15T17:58:52;10.40;99.90
9177;DHT22;4623;54.310;10.112;2022-11-15T18:01:25;10.40;99.90
9177;DHT22;4623;54.310;10.112;2022-11-15T18:03:52;10.40;99.90
9177;DHT22;4623;54.310;10.112;2022-11-15T18:06:19;10.40;99.90
9177;DHT22;4623;54.310;10.112;2022-11-15T18:08:46;10.40;99.90
9177;DHT22;4623;54.310;10.112;2022-11-15T18:11:21;10.40;99.90
9177;DHT22;4623;54.310;10.112;2022-11-15T18:13:50;10.40;99.90
9177;DHT22;4623;54.310;10.112;2022-11-15T18:16:18;10.40;99.90
9177;DHT22;4623;54.310;10.112;2022-11-15T18:18:44;10.40;99.90
9177;DHT22;4623;54.310;10.112;2022-11-15T18:23:37;10.40;99.90
9177;DHT22;4623;54.310;10.112;2022-11-15T18:26:04;10.40;99.90
9177;DHT22;4623;54.310;10.112;2022-11-15T18:28:35;10.40;99.90
9177;DHT22;4623;54.310;10.112;2022-11-15T18:31:02;10.40;99.90
9177;DHT22;4623;54.310;10.112;2022-11-15T18:33:32;10.40;99.90
9177;DHT22;4623;54.310;10.112;2022-11-15T18:36:04;10.40;99.90
9177;DHT22;4623;54.310;10.112;2022-11-15T18:38:30;10.40;99.90
9177;DHT22;4623;54.310;10.112;2022-11-15T18:41:03;10.40;99.90